Time;durP1;ratioP1;P1;durP2;ratioP2;P2;SDS_P1;SDS_P2;PMS_P1;PMS_P2;Temp;Humidity;BMP_temperature;BMP_pressure;BME280_temperature;BME280_humidity;BME280_pressure;Samples;Min_cycle;Max_cycle;Signal;HPM_P1;HPM_P2
2020/12/16 00:00:29;;;;;;;89.50;42.95;;;6.60;99.90;;;;;;5089230;28;20051;-75
2020/12/16 00:02:55;;;;;;;78.07;39.72;;;6.60;99.90;;;;;;5057238;28;20033;-75
2020/12/16 00:05:20;;;;;;;94.53;42.15;;;6.60;99.90;;;;;;5056983;28;20024;-75
2020/12/16 00:07:46;;;;;;;92.47;44.55;;;6.60;99.90;;;;;;5057209;28;20016;-75
2020/12/16 00:10:11;;;;;;;88.95;40.35;;;6.60;99.90;;;;;;5057185;28;20154;-75
2020/12/16 00:12:41;;;;;;;89.85;42.75;;;6.60;99.90;;;;;;5074838;28;20099;-75
2020/12/16 00:15:09;;;;;;;81.93;42.03;;;6.60;99.90;;;;;;5057056;28;20116;-75
2020/12/16 00:17:35;;;;;;;103.15;42.80;;;6.50;99.90;;;;;;5059871;28;20028;-75
2020/12/16 00:20:01;;;;;;;82.40;39.25;;;6.50;99.90;;;;;;5086006;28;20150;-75
2020/12/16 00:22:26;;;;;;;88.82;40.70;;;6.50;99.90;;;;;;5059660;28;20368;-75
2020/12/16 00:24:52;;;;;;;81.97;39.60;;;6.50;99.90;;;;;;5074931;28;20474;-75
2020/12/16 00:27:17;;;;;;;100.15;39.17;;;6.50;99.90;;;;;;5059697;28;20476;-75
2020/12/16 00:29:43;;;;;;;91.40;37.25;;;6.50;99.90;;;;;;5073797;28;20532;-75
2020/12/16 00:32:09;;;;;;;93.95;38.10;;;6.50;99.90;;;;;;5056184;28;20028;-75
2020/12/16 00:34:34;;;;;;;88.32;43.95;;;6.50;99.90;;;;;;5075544;28;20031;-75
2020/12/16 00:37:00;;;;;;;88.97;39.72;;;6.40;99.90;;;;;;5075218;28;20104;-75
2020/12/16 00:39:25;;;;;;;105.70;36.10;;;6.40;99.90;;;;;;5074459;28;20384;-75
2020/12/16 00:41:51;;;;;;;106.85;41.10;;;6.50;99.90;;;;;;5074468;28;20016;-76
2020/12/16 00:44:16;;;;;;;121.03;40.47;;;6.40;99.90;;;;;;5056587;28;20538;-75
2020/12/16 00:46:42;;;;;;;111.65;37.85;;;6.50;99.90;;;;;;5059328;28;20024;-75
2020/12/16 00:49:07;;;;;;;85.20;41.20;;;6.40;99.90;;;;;;5083521;28;20040;-75
2020/12/16 00:51:33;;;;;;;81.28;38.60;;;6.40;99.90;;;;;;5074215;28;20028;-75
2020/12/16 00:53:58;;;;;;;82.40;36.83;;;6.40;99.90;;;;;;5074302;28;20024;-75
2020/12/16 00:56:24;;;;;;;73.13;37.70;;;6.30;99.90;;;;;;5073017;28;20437;-75
2020/12/16 00:58:50;;;;;;;81.53;36.25;;;6.30;99.90;;;;;;5058698;28;20020;-75
2020/12/16 01:01:15;;;;;;;78.90;36.53;;;6.30;99.90;;;;;;5067476;28;20025;-75
2020/12/16 01:03:41;;;;;;;71.40;36.53;;;6.20;99.90;;;;;;5087415;28;20028;-75
2020/12/16 01:06:06;;;;;;;77.10;36.20;;;6.20;99.90;;;;;;5073440;28;20059;-75
2020/12/16 01:08:32;;;;;;;72.70;36.38;;;6.20;99.90;;;;;;5073934;28;20070;-75
2020/12/16 01:10:58;;;;;;;67.35;36.80;;;6.20;99.90;;;;;;5055876;28;20070;-75
2020/12/16 01:13:23;;;;;;;69.70;37.05;;;6.20;99.90;;;;;;5055827;28;20082;-75
2020/12/16 01:15:49;;;;;;;68.18;37.35;;;6.20;99.90;;;;;;5073803;28;20029;-75
2020/12/16 01:18:15;;;;;;;64.82;36.92;;;6.20;99.90;;;;;;5073647;28;20021;-75
2020/12/16 01:20:40;;;;;;;63.22;32.88;;;6.20;99.90;;;;;;5073530;28;20099;-75
2020/12/16 01:23:06;;;;;;;72.97;34.53;;;6.20;99.90;;;;;;5073835;28;20040;-75
2020/12/16 01:25:31;;;;;;;66.85;38.38;;;6.30;99.90;;;;;;5073607;28;20082;-75
2020/12/16 01:28:01;;;;;;;72.10;33.75;;;6.30;99.90;;;;;;5055783;28;20074;-75
2020/12/16 01:30:28;;;;;;;68.38;37.13;;;6.30;99.90;;;;;;5055474;28;20028;-75
2020/12/16 01:32:55;;;;;;;87.28;38.40;;;6.30;99.90;;;;;;5073268;28;20035;-75
2020/12/16 01:35:22;;;;;;;74.32;36.28;;;6.30;99.90;;;;;;5056315;28;20024;-75
2020/12/16 01:37:47;;;;;;;81.38;38.15;;;6.30;99.90;;;;;;5055457;28;20025;-75
2020/12/16 01:40:14;;;;;;;71.90;36.85;;;6.30;99.90;;;;;;5055426;28;20108;-75
2020/12/16 01:42:40;;;;;;;71.63;38.63;;;6.30;99.90;;;;;;5073390;28;20494;-75
2020/12/16 01:45:07;;;;;;;78.97;34.85;;;6.30;99.90;;;;;;5055256;28;20028;-75
2020/12/16 01:47:33;;;;;;;70.57;35.60;;;6.30;99.90;;;;;;5055122;28;20021;-75
2020/12/16 01:49:59;;;;;;;69.90;37.97;;;6.20;99.90;;;;;;5075616;28;20451;-75
2020/12/16 01:52:27;;;;;;;66.97;36.45;;;6.20;99.90;;;;;;5083479;28;20498;-75
2020/12/16 01:54:57;;;;;;;71.05;35.60;;;6.20;99.90;;;;;;5056895;28;20024;-75
2020/12/16 01:57:24;;;;;;;;;;;6.10;99.90;;;;;;5093742;28;20023;-75
2020/12/16 01:59:50;;;;;;;87.70;35.33;;;6.10;99.90;;;;;;5089272;28;20351;-75
2020/12/16 02:02:18;;;;;;;55.85;29.40;;;6.10;99.90;;;;;;5057708;28;20025;-75
2020/12/16 02:04:47;;;;;;;78.00;34.60;;;6.10;99.90;;;;;;5072693;28;20094;-75
2020/12/16 02:07:14;;;;;;;69.63;31.20;;;6.10;99.90;;;;;;5054993;28;20016;-75
2020/12/16 02:09:45;;;;;;;58.72;33.83;;;6.10;99.90;;;;;;5072795;28;20024;-75
2020/12/16 02:12:23;;;;;;;56.92;32.83;;;6.10;99.90;;;;;;5054720;28;20017;-75
2020/12/16 02:14:49;;;;;;;58.05;31.38;;;6.00;99.90;;;;;;5079582;28;20028;-75
2020/12/16 02:17:15;;;;;;;59.15;31.48;;;6.00;99.90;;;;;;5054728;28;20545;-75
2020/12/16 02:19:42;;;;;;;60.83;34.10;;;6.00;99.90;;;;;;5053625;28;20480;-75
2020/12/16 02:22:11;;;;;;;64.25;34.75;;;6.00;99.90;;;;;;5072511;28;20020;-75
2020/12/16 02:24:44;;;;;;;65.00;34.72;;;6.00;99.90;;;;;;5054435;28;20115;-75
2020/12/16 02:27:10;;;;;;;64.90;32.58;;;6.00;99.90;;;;;;5049752;28;20039;-75
2020/12/16 02:29:36;;;;;;;50.20;27.63;;;5.90;99.90;;;;;;5054364;28;20012;-75
2020/12/16 02:32:03;;;;;;;56.22;32.33;;;5.90;99.90;;;;;;5072290;28;20487;-75
2020/12/16 02:34:29;;;;;;;58.97;29.25;;;5.90;99.90;;;;;;5072447;28;20013;-75
2020/12/16 02:36:54;;;;;;;54.53;29.55;;;6.00;99.90;;;;;;5073928;28;20094;-75
2020/12/16 02:39:20;;;;;;;60.72;28.55;;;6.00;99.90;;;;;;5072249;28;20071;-75
2020/12/16 02:41:45;;;;;;;64.65;31.73;;;6.00;99.90;;;;;;5060503;28;20467;-75
2020/12/16 02:44:12;;;;;;;73.63;32.15;;;6.00;99.90;;;;;;5080301;28;20016;-75
2020/12/16 02:46:38;;;;;;;70.95;31.50;;;6.00;99.90;;;;;;5072164;28;20103;-75
2020/12/16 02:49:04;;;;;;;59.35;32.13;;;6.00;99.90;;;;;;5054035;28;20532;-75
2020/12/16 02:51:30;;;;;;;64.75;31.90;;;5.90;99.90;;;;;;5054034;28;20070;-75
2020/12/16 02:53:56;;;;;;;65.75;32.25;;;6.00;99.90;;;;;;5072087;28;20094;-75
2020/12/16 02:56:22;;;;;;;68.00;34.17;;;5.90;99.90;;;;;;5053917;28;20480;-75
2020/12/16 02:58:47;;;;;;;59.33;33.55;;;5.90;99.90;;;;;;5074399;28;20020;-75
2020/12/16 03:01:13;;;;;;;61.30;31.70;;;5.80;99.90;;;;;;5058512;28;20048;-75
2020/12/16 03:03:38;;;;;;;71.28;34.78;;;5.80;99.90;;;;;;5071846;28;20051;-75
2020/12/16 03:06:04;;;;;;;54.90;32.13;;;5.70;99.90;;;;;;5053907;28;20480;-75
2020/12/16 03:08:30;;;;;;;57.63;32.28;;;5.70;99.90;;;;;;5072130;28;20056;-75
2020/12/16 03:10:55;;;;;;;59.03;30.20;;;5.60;99.90;;;;;;5071741;28;20028;-75
2020/12/16 03:13:21;;;;;;;59.50;29.05;;;5.60;99.90;;;;;;5071859;28;20032;-75
2020/12/16 03:15:46;;;;;;;66.95;31.70;;;5.60;99.90;;;;;;5053955;28;20025;-75
2020/12/16 03:18:12;;;;;;;53.15;30.60;;;5.60;99.90;;;;;;5054000;28;20022;-75
2020/12/16 03:20:38;;;;;;;50.95;29.10;;;5.50;99.90;;;;;;5071623;28;20031;-75
2020/12/16 03:23:03;;;;;;;53.08;30.10;;;5.50;99.90;;;;;;5071726;28;20024;-75
2020/12/16 03:25:29;;;;;;;73.07;30.45;;;5.50;99.90;;;;;;5056606;28;20039;-75
2020/12/16 03:27:54;;;;;;;59.45;30.10;;;5.50;99.90;;;;;;5053817;28;20020;-74
2020/12/16 03:30:20;;;;;;;58.97;29.30;;;5.50;99.90;;;;;;5056071;28;20032;-75
2020/12/16 03:32:45;;;;;;;44.50;28.08;;;5.50;99.90;;;;;;5057866;28;20429;-75
2020/12/16 03:35:11;;;;;;;49.80;30.20;;;5.50;99.90;;;;;;5059375;28;20578;-74
2020/12/16 03:37:37;;;;;;;47.72;29.48;;;5.40;99.90;;;;;;5075869;28;20108;-75
2020/12/16 03:40:03;;;;;;;45.42;29.48;;;5.40;99.90;;;;;;5060272;28;20028;-75
2020/12/16 03:42:28;;;;;;;45.33;28.05;;;5.40;99.90;;;;;;5057730;28;20035;-75
2020/12/16 03:44:54;;;;;;;48.50;26.88;;;5.40;99.90;;;;;;5057508;28;20020;-75
2020/12/16 03:47:19;;;;;;;44.85;28.77;;;5.30;99.90;;;;;;5057684;28;20460;-75
2020/12/16 03:49:45;;;;;;;46.92;29.02;;;5.30;99.90;;;;;;5075116;28;20492;-75
2020/12/16 03:52:10;;;;;;;50.10;29.38;;;5.20;99.90;;;;;;5064304;28;20027;-75
2020/12/16 03:54:36;;;;;;;45.67;28.20;;;5.20;99.90;;;;;;5059076;28;20088;-75
2020/12/16 03:57:02;;;;;;;48.47;28.33;;;5.20;99.90;;;;;;5075157;28;20019;-75
2020/12/16 03:59:27;;;;;;;55.90;30.60;;;5.20;99.90;;;;;;5065083;28;20023;-75
2020/12/16 04:01:53;;;;;;;50.30;29.42;;;5.20;99.90;;;;;;5081445;28;20017;-75
2020/12/16 04:04:18;;;;;;;51.60;29.83;;;5.20;99.90;;;;;;5075208;28;20023;-75
2020/12/16 04:06:44;;;;;;;45.53;28.35;;;5.20;99.90;;;;;;5074903;28;20111;-75
2020/12/16 04:09:10;;;;;;;52.25;30.48;;;5.20;99.90;;;;;;5057073;28;20099;-74
2020/12/16 04:11:35;;;;;;;47.67;29.00;;;5.20;99.90;;;;;;5075048;28;20099;-75
2020/12/16 04:14:00;;;;;;;48.47;28.23;;;5.20;99.90;;;;;;5057026;28;20044;-74
2020/12/16 04:16:26;;;;;;;49.92;28.98;;;5.10;99.90;;;;;;5056968;28;20050;-75
2020/12/16 04:18:52;;;;;;;49.70;30.33;;;5.10;99.90;;;;;;5057059;28;20028;-75
2020/12/16 04:21:19;;;;;;;50.83;31.00;;;5.10;99.90;;;;;;5056741;28;20027;-75
2020/12/16 04:23:46;;;;;;;53.28;30.30;;;5.00;99.90;;;;;;5074736;28;20484;-75
2020/12/16 04:26:11;;;;;;;56.17;31.77;;;5.10;99.90;;;;;;5068544;28;20028;-74
2020/12/16 04:28:37;;;;;;;60.38;31.33;;;5.10;99.90;;;;;;5074044;28;20074;-74
2020/12/16 04:31:09;;;;;;;51.92;32.25;;;5.10;99.90;;;;;;5056102;28;20013;-75
2020/12/16 04:33:34;;;;;;;49.85;30.40;;;5.10;99.90;;;;;;5056218;28;20029;-75
2020/12/16 04:36:00;;;;;;;56.58;32.42;;;5.10;99.90;;;;;;5075447;28;20029;-74
2020/12/16 04:38:25;;;;;;;59.22;33.00;;;5.10;99.90;;;;;;5056518;28;20036;-75
2020/12/16 04:40:51;;;;;;;58.92;34.22;;;5.10;99.90;;;;;;5073761;28;20028;-75
2020/12/16 04:43:19;;;;;;;75.88;38.50;;;5.10;99.90;;;;;;5056126;28;20025;-75
2020/12/16 04:45:45;;;;;;;66.80;34.78;;;5.10;99.90;;;;;;5074436;28;20021;-74
2020/12/16 04:48:13;;;;;;;55.35;34.03;;;5.10;99.90;;;;;;5056182;28;20027;-75
2020/12/16 04:50:39;;;;;;;59.08;33.75;;;5.10;99.90;;;;;;5074188;28;20031;-74
2020/12/16 04:53:11;;;;;;;65.80;36.35;;;5.10;99.90;;;;;;5056251;28;20023;-75
2020/12/16 04:55:37;;;;;;;69.57;35.85;;;5.10;99.90;;;;;;5073908;28;20028;-74
2020/12/16 04:58:04;;;;;;;59.72;34.22;;;5.00;99.90;;;;;;5074284;28;20032;-74
2020/12/16 05:00:31;;;;;;;61.58;35.42;;;5.10;99.90;;;;;;5090438;28;20043;-74
2020/12/16 05:03:00;;;;;;;71.10;37.08;;;5.10;99.90;;;;;;5067392;28;20024;-75
2020/12/16 05:05:26;;;;;;;72.15;38.13;;;5.10;99.90;;;;;;5056070;28;20036;-74
2020/12/16 05:07:53;;;;;;;69.90;35.83;;;5.10;99.90;;;;;;5056042;28;20016;-74
2020/12/16 05:10:34;;;;;;;72.55;38.00;;;5.10;99.90;;;;;;5055999;28;20017;-75
2020/12/16 05:13:04;;;;;;;70.95;37.88;;;5.10;99.90;;;;;;5055738;28;20361;-75
2020/12/16 05:15:30;;;;;;;65.00;37.33;;;5.10;99.90;;;;;;5074005;28;20028;-75
2020/12/16 05:18:10;;;;;;;74.47;39.22;;;5.00;99.90;;;;;;5073552;28;20041;-75
2020/12/16 05:20:37;;;;;;;73.45;38.28;;;5.10;99.90;;;;;;5055778;28;20043;-75
2020/12/16 05:23:04;;;;;;;72.10;37.72;;;5.10;99.90;;;;;;5058342;28;20051;-75
2020/12/16 05:25:29;;;;;;;72.45;35.83;;;5.10;99.90;;;;;;5055676;28;20527;-75
2020/12/16 05:27:55;;;;;;;77.90;37.28;;;5.00;99.90;;;;;;5073519;28;20115;-75
2020/12/16 05:30:21;;;;;;;70.47;34.42;;;5.00;99.90;;;;;;5073570;28;20014;-75
2020/12/16 05:32:47;;;;;;;68.63;36.15;;;5.00;99.90;;;;;;5055413;28;20107;-75
2020/12/16 05:35:23;;;;;;;68.60;34.97;;;5.00;99.90;;;;;;5075265;28;20024;-75
2020/12/16 05:37:49;;;;;;;72.80;35.50;;;5.00;99.90;;;;;;5055259;28;20025;-75
2020/12/16 05:40:20;;;;;;;69.07;35.58;;;5.00;99.90;;;;;;5055487;28;20036;-75
2020/12/16 05:42:50;;;;;;;67.80;34.40;;;5.00;99.90;;;;;;5073134;28;20020;-75
2020/12/16 05:45:20;;;;;;;71.35;35.28;;;4.90;99.90;;;;;;5073300;28;20029;-75
2020/12/16 05:48:05;;;;;;;73.25;33.90;;;4.90;99.90;;;;;;5073256;28;20491;-75
2020/12/16 05:50:35;;;;;;;76.80;36.47;;;4.90;99.90;;;;;;5073379;28;20060;-75
2020/12/16 05:53:08;;;;;;;;;;;4.80;99.90;;;;;;5069280;28;20379;-75
2020/12/16 05:55:34;;;;;;;57.35;30.00;;;4.80;99.90;;;;;;5072990;28;20298;-75
2020/12/16 05:58:13;;;;;;;57.20;29.67;;;4.70;99.90;;;;;;5073295;28;20013;-75
2020/12/16 06:00:51;;;;;;;70.63;32.10;;;4.80;99.90;;;;;;5087146;28;20013;-75
2020/12/16 06:03:23;;;;;;;59.50;28.73;;;4.80;99.90;;;;;;5060421;28;20502;-75
2020/12/16 06:05:51;;;;;;;63.28;30.85;;;4.80;99.90;;;;;;5054694;28;20491;-75
2020/12/16 06:08:17;;;;;;;61.90;31.08;;;4.80;99.90;;;;;;5072735;28;20353;-75
2020/12/16 06:10:45;;;;;;;66.75;32.47;;;4.80;99.90;;;;;;5073945;28;20013;-75
2020/12/16 06:13:14;;;;;;;61.47;29.05;;;4.80;99.90;;;;;;5076867;28;20017;-75
2020/12/16 06:15:52;;;;;;;70.30;31.70;;;4.80;99.90;;;;;;5072929;28;20083;-75
2020/12/16 06:18:20;;;;;;;67.30;30.55;;;4.80;99.90;;;;;;5072432;28;20027;-75
2020/12/16 06:20:46;;;;;;;61.15;29.23;;;4.80;99.90;;;;;;5072589;28;20036;-74
2020/12/16 06:23:23;;;;;;;67.22;32.17;;;4.80;99.90;;;;;;5054426;28;20020;-74
2020/12/16 06:25:51;;;;;;;65.68;31.63;;;4.80;99.90;;;;;;5072451;28;20102;-74
2020/12/16 06:28:18;;;;;;;64.25;31.23;;;4.80;99.90;;;;;;5071917;28;20039;-74
2020/12/16 06:31:11;;;;;;;64.05;32.90;;;4.70;99.90;;;;;;5082262;28;20119;-74
2020/12/16 06:34:00;;;;;;;67.80;31.65;;;4.80;99.90;;;;;;5072615;28;20111;-74
2020/12/16 06:36:38;;;;;;;66.57;33.85;;;4.80;99.90;;;;;;5071925;28;20031;-75
2020/12/16 06:39:18;;;;;;;65.18;32.60;;;4.80;99.90;;;;;;5072324;28;20021;-74
2020/12/16 06:41:52;;;;;;;72.72;34.13;;;4.70;99.90;;;;;;5054904;28;20395;-74
2020/12/16 06:44:18;;;;;;;71.18;34.40;;;4.70;99.90;;;;;;5055092;28;20119;-75
2020/12/16 06:46:48;;;;;;;76.13;35.60;;;4.80;99.90;;;;;;5072965;28;20024;-74
2020/12/16 06:49:22;;;;;;;72.55;32.40;;;4.80;99.90;;;;;;5072875;28;20071;-74
2020/12/16 06:51:51;;;;;;;70.78;35.28;;;4.80;99.90;;;;;;5072920;28;20403;-74
2020/12/16 06:54:19;;;;;;;64.40;33.35;;;4.80;99.90;;;;;;5054703;28;20026;-74
2020/12/16 06:56:46;;;;;;;58.17;32.30;;;4.80;99.90;;;;;;5054930;28;20021;-75
2020/12/16 06:59:12;;;;;;;63.28;30.83;;;4.80;99.90;;;;;;5054677;28;20480;-74
2020/12/16 07:01:38;;;;;;;61.20;30.15;;;4.80;99.90;;;;;;5054671;28;20032;-75
2020/12/16 07:04:03;;;;;;;62.83;29.40;;;4.90;99.90;;;;;;5054052;28;20112;-74
2020/12/16 07:06:29;;;;;;;62.92;31.58;;;4.90;99.90;;;;;;5072742;28;20377;-74
2020/12/16 07:09:14;;;;;;;73.78;33.10;;;4.90;99.90;;;;;;5054680;28;20024;-74
2020/12/16 07:11:40;;;;;;;53.85;29.52;;;5.00;99.90;;;;;;5054731;28;20029;-75
2020/12/16 07:14:11;;;;;;;58.80;30.33;;;4.90;99.90;;;;;;5054639;28;20496;-74
2020/12/16 07:16:36;;;;;;;60.95;31.25;;;4.90;99.90;;;;;;5072653;28;20036;-74
2020/12/16 07:19:03;;;;;;;56.05;28.77;;;4.90;99.90;;;;;;5074363;28;20078;-74
2020/12/16 07:21:31;;;;;;;52.00;28.25;;;4.90;99.90;;;;;;5074724;28;20119;-74
2020/12/16 07:24:06;;;;;;;53.53;27.73;;;4.90;99.90;;;;;;5074601;28;20047;-74
2020/12/16 07:26:43;;;;;;;53.08;26.27;;;4.90;99.90;;;;;;5092632;28;20020;-74
2020/12/16 07:29:20;;;;;;;55.30;26.08;;;4.90;99.90;;;;;;5074690;28;20070;-74
2020/12/16 07:31:59;;;;;;;53.05;26.15;;;5.00;99.90;;;;;;5092772;28;20031;-74
2020/12/16 07:34:25;;;;;;;49.88;27.45;;;4.90;99.90;;;;;;5074483;28;20111;-74
2020/12/16 07:37:00;;;;;;;49.85;27.15;;;4.90;99.90;;;;;;5072606;28;20024;-74
2020/12/16 07:39:26;;;;;;;52.10;27.95;;;4.90;99.90;;;;;;5054450;28;20112;-74
2020/12/16 07:41:55;;;;;;;51.42;26.77;;;4.90;99.90;;;;;;5054457;28;20025;-74
2020/12/16 07:44:20;;;;;;;53.28;26.90;;;5.00;99.90;;;;;;5054302;28;20429;-74
2020/12/16 07:46:46;;;;;;;50.70;26.88;;;5.00;99.90;;;;;;5053891;28;20116;-74
2020/12/16 07:49:16;;;;;;;53.40;27.15;;;5.00;99.90;;;;;;5054139;28;20098;-75
2020/12/16 07:51:43;;;;;;;48.22;25.48;;;5.00;99.90;;;;;;5054304;28;20025;-75
2020/12/16 07:54:08;;;;;;;50.50;28.98;;;5.00;99.90;;;;;;5072087;28;20036;-74
2020/12/16 07:56:34;;;;;;;59.15;30.30;;;5.00;99.90;;;;;;5072214;28;20028;-75
2020/12/16 07:59:10;;;;;;;49.90;26.30;;;5.00;99.90;;;;;;5054346;28;20429;-75
2020/12/16 08:01:35;;;;;;;47.47;27.00;;;5.00;99.90;;;;;;5072311;28;20055;-75
2020/12/16 08:04:01;;;;;;;47.33;26.67;;;5.00;99.90;;;;;;5067716;28;20113;-75
2020/12/16 08:06:26;;;;;;;38.83;24.70;;;5.00;99.90;;;;;;5070593;28;20040;-74
2020/12/16 08:08:52;;;;;;;47.17;26.35;;;5.10;99.90;;;;;;5072951;28;20025;-74
2020/12/16 08:11:25;;;;;;;38.33;23.77;;;5.10;99.90;;;;;;5073619;28;20479;-74
2020/12/16 08:13:52;;;;;;;38.80;24.02;;;5.10;99.90;;;;;;5073666;28;20111;-75
2020/12/16 08:16:17;;;;;;;40.33;22.88;;;5.10;99.90;;;;;;5075875;28;20035;-74
2020/12/16 08:18:48;;;;;;;39.30;23.20;;;5.10;99.90;;;;;;5077715;28;20020;-75
2020/12/16 08:21:22;;;;;;;40.75;23.02;;;5.10;99.90;;;;;;5095814;28;20103;-75
2020/12/16 08:23:49;;;;;;;35.22;22.60;;;5.10;99.90;;;;;;5095735;28;20173;-75
2020/12/16 08:26:16;;;;;;;38.50;23.55;;;5.10;99.90;;;;;;5077438;28;20114;-74
2020/12/16 08:28:42;;;;;;;39.67;23.17;;;5.10;99.90;;;;;;5077485;28;20398;-74
2020/12/16 08:31:08;;;;;;;38.40;22.63;;;5.10;99.90;;;;;;5077527;28;20020;-74
2020/12/16 08:33:34;;;;;;;40.55;23.98;;;5.10;99.90;;;;;;5077272;28;20090;-74
2020/12/16 08:36:01;;;;;;;37.35;23.77;;;5.10;99.90;;;;;;5077239;28;20116;-74
2020/12/16 08:38:28;;;;;;;39.10;23.92;;;5.10;99.90;;;;;;5077322;28;20028;-74
2020/12/16 08:40:58;;;;;;;38.55;24.08;;;5.20;99.90;;;;;;5077212;28;20028;-74
2020/12/16 08:43:30;;;;;;;36.22;23.75;;;5.20;99.90;;;;;;5095315;28;20103;-74
2020/12/16 08:46:10;;;;;;;36.67;23.73;;;5.20;99.90;;;;;;5076988;28;20439;-74
2020/12/16 08:48:41;;;;;;;36.97;23.25;;;5.20;99.90;;;;;;5076932;28;20499;-74
2020/12/16 08:51:09;;;;;;;36.90;24.10;;;5.20;99.90;;;;;;5077184;28;20028;-74
2020/12/16 08:53:57;;;;;;;38.13;24.15;;;5.20;99.90;;;;;;5086181;28;20027;-74
2020/12/16 08:56:42;;;;;;;42.83;23.88;;;5.30;99.90;;;;;;5072760;28;20081;-74
2020/12/16 08:59:08;;;;;;;39.20;23.27;;;5.30;99.90;;;;;;5076929;28;20026;-77
2020/12/16 09:01:34;;;;;;;40.15;24.33;;;5.30;99.90;;;;;;5071919;28;20028;-74
2020/12/16 09:04:00;;;;;;;37.42;24.80;;;5.30;99.90;;;;;;5082701;28;20066;-74
2020/12/16 09:06:25;;;;;;;42.38;26.00;;;5.30;99.90;;;;;;5074768;28;20028;-74
2020/12/16 09:08:51;;;;;;;38.65;24.75;;;5.40;99.90;;;;;;5074750;28;20380;-74
2020/12/16 09:11:21;;;;;;;36.85;23.98;;;5.40;99.90;;;;;;5074683;28;20020;-74
2020/12/16 09:13:50;;;;;;;42.83;25.83;;;5.40;99.90;;;;;;5076023;28;20028;-74
2020/12/16 09:16:23;;;;;;;39.67;24.52;;;5.50;99.90;;;;;;5094830;28;20071;-74
2020/12/16 09:18:50;;;;;;;36.97;24.20;;;5.50;99.90;;;;;;5076545;28;20031;-74
2020/12/16 09:21:17;;;;;;;37.67;24.85;;;5.50;99.90;;;;;;5076685;28;20502;-74
2020/12/16 09:23:43;;;;;;;36.63;24.63;;;5.60;99.90;;;;;;5082920;28;20060;-75
2020/12/16 09:26:09;;;;;;;39.85;24.88;;;5.60;99.90;;;;;;5065010;28;20425;-74
2020/12/16 09:28:37;;;;;;;34.95;23.45;;;5.60;99.90;;;;;;5083620;28;20020;-75
2020/12/16 09:31:16;;;;;;;40.80;26.48;;;5.60;99.90;;;;;;5066479;28;20017;-74
2020/12/16 09:33:53;;;;;;;37.80;24.15;;;5.70;99.90;;;;;;5065228;28;20021;-74
2020/12/16 09:36:23;;;;;;;37.22;24.88;;;5.70;99.90;;;;;;5059202;28;20024;-74
2020/12/16 09:38:57;;;;;;;41.25;25.77;;;5.80;99.90;;;;;;5067315;28;20052;-74
2020/12/16 09:41:23;;;;;;;35.67;25.38;;;5.80;99.90;;;;;;5070706;28;20081;-74
2020/12/16 09:43:49;;;;;;;39.97;25.25;;;5.90;99.90;;;;;;5076089;28;20526;-74
2020/12/16 09:46:16;;;;;;;33.58;23.58;;;5.90;99.90;;;;;;5073077;28;20024;-74
2020/12/16 09:48:43;;;;;;;36.88;24.60;;;6.00;99.90;;;;;;5080503;28;20128;-74
2020/12/16 09:51:13;;;;;;;35.05;24.30;;;6.00;99.90;;;;;;5084302;28;20031;-74
2020/12/16 09:53:40;;;;;;;36.63;23.90;;;6.10;99.90;;;;;;5055501;28;20075;-74
2020/12/16 09:56:05;;;;;;;31.58;23.77;;;6.10;99.90;;;;;;5073617;28;20033;-74
2020/12/16 09:58:38;;;;;;;32.58;23.60;;;6.10;99.90;;;;;;5055712;28;20035;-74
2020/12/16 10:01:04;;;;;;;31.05;22.33;;;6.20;99.90;;;;;;5055490;28;20077;-74
2020/12/16 10:03:30;;;;;;;31.92;22.90;;;6.30;99.90;;;;;;5073715;28;20024;-74
2020/12/16 10:05:55;;;;;;;35.45;24.10;;;6.30;99.90;;;;;;5089086;28;20396;-74
2020/12/16 10:08:21;;;;;;;31.98;22.67;;;6.40;99.90;;;;;;5073670;28;20046;-74
2020/12/16 10:10:47;;;;;;;32.75;22.63;;;6.40;99.90;;;;;;5073455;28;20138;-74
2020/12/16 10:13:13;;;;;;;31.05;23.02;;;6.50;99.90;;;;;;5055405;28;20074;-74
2020/12/16 10:15:39;;;;;;;30.85;22.08;;;6.60;99.90;;;;;;5088857;28;20411;-74
2020/12/16 10:18:05;;;;;;;29.77;20.30;;;6.70;99.90;;;;;;5055302;28;20111;-74
2020/12/16 10:20:31;;;;;;;27.20;20.58;;;6.90;99.90;;;;;;5063085;28;20028;-74
2020/12/16 10:22:56;;;;;;;25.55;20.92;;;7.00;99.90;;;;;;5083208;28;20032;-74
2020/12/16 10:25:22;;;;;;;29.35;20.90;;;7.10;99.90;;;;;;5082420;28;20028;-75
2020/12/16 10:27:47;;;;;;;22.27;18.13;;;7.30;99.90;;;;;;5061552;28;20052;-74
2020/12/16 10:30:13;;;;;;;18.88;16.15;;;7.50;99.90;;;;;;5082437;28;20020;-74
2020/12/16 10:32:39;;;;;;;17.48;14.93;;;7.80;99.90;;;;;;5083852;28;20032;-75
2020/12/16 10:35:05;;;;;;;16.63;14.70;;;8.00;99.90;;;;;;5084518;28;20081;-75
2020/12/16 10:37:33;;;;;;;17.25;14.52;;;8.40;99.90;;;;;;5081389;28;20031;-75
2020/12/16 10:39:58;;;;;;;17.10;12.90;;;8.70;99.90;;;;;;5077472;28;20019;-75
2020/12/16 10:42:24;;;;;;;16.90;12.93;;;8.80;99.90;;;;;;5083737;28;20036;-75
2020/12/16 10:44:50;;;;;;;13.70;12.30;;;9.00;99.90;;;;;;5077202;28;20024;-74
2020/12/16 10:47:16;;;;;;;13.77;11.25;;;9.30;99.90;;;;;;5057389;28;20023;-75
2020/12/16 10:49:41;;;;;;;14.80;11.40;;;9.50;99.90;;;;;;5058057;28;20044;-75
2020/12/16 10:52:12;;;;;;;15.98;12.38;;;9.70;99.90;;;;;;5077787;28;20415;-75
2020/12/16 10:54:38;;;;;;;13.35;11.95;;;9.80;99.90;;;;;;5056166;28;20468;-75
2020/12/16 10:57:04;;;;;;;13.98;11.98;;;9.90;99.90;;;;;;5053842;28;20024;-74
2020/12/16 10:59:30;;;;;;;14.55;12.05;;;10.00;99.90;;;;;;5071393;28;20089;-75
2020/12/16 11:01:57;;;;;;;13.10;11.23;;;10.10;99.90;;;;;;5071914;28;20441;-75
2020/12/16 11:04:22;;;;;;;13.30;11.00;;;10.20;99.90;;;;;;5059690;28;20036;-75
2020/12/16 11:06:49;;;;;;;15.00;11.07;;;10.20;99.90;;;;;;5066314;28;20085;-75
2020/12/16 11:09:16;;;;;;;12.93;10.80;;;10.10;99.50;;;;;;5074441;28;20082;-75
2020/12/16 11:11:46;;;;;;;15.85;10.80;;;9.80;99.80;;;;;;5074235;28;20017;-75
2020/12/16 11:14:12;;;;;;;13.40;10.35;;;9.70;99.90;;;;;;5060216;28;20194;-75
2020/12/16 11:16:38;;;;;;;14.07;11.05;;;9.50;99.90;;;;;;5053545;28;20454;-75
2020/12/16 11:19:04;;;;;;;12.98;10.82;;;9.50;99.90;;;;;;5071891;28;20074;-75
2020/12/16 11:21:37;;;;;;;13.80;10.20;;;9.50;99.90;;;;;;5066770;28;20024;-75
2020/12/16 11:24:03;;;;;;;15.23;11.63;;;9.50;99.90;;;;;;5092514;28;20506;-75
2020/12/16 11:26:28;;;;;;;15.63;11.25;;;9.40;99.90;;;;;;5074165;28;20051;-74
2020/12/16 11:28:54;;;;;;;12.98;11.27;;;9.40;99.90;;;;;;5091834;28;20090;-75
2020/12/16 11:31:19;;;;;;;14.10;10.98;;;9.50;99.90;;;;;;5071626;28;20038;-75
2020/12/16 11:33:54;;;;;;;14.80;10.55;;;9.40;99.90;;;;;;5067293;28;20387;-75
2020/12/16 11:36:19;;;;;;;15.15;11.18;;;9.40;99.90;;;;;;5073914;28;20036;-75
2020/12/16 11:38:45;;;;;;;18.25;11.65;;;9.30;99.90;;;;;;5053401;28;20023;-75
2020/12/16 11:41:10;;;;;;;12.65;11.32;;;9.20;99.90;;;;;;5053186;28;20583;-75
2020/12/16 11:43:36;;;;;;;14.75;11.60;;;9.20;99.90;;;;;;5073266;28;20044;-75
2020/12/16 11:46:01;;;;;;;17.08;12.90;;;9.10;99.90;;;;;;5071121;28;20029;-75
2020/12/16 11:48:27;;;;;;;14.55;12.50;;;9.20;99.90;;;;;;5053642;28;20128;-75
2020/12/16 11:50:52;;;;;;;15.73;12.57;;;9.20;99.90;;;;;;5054619;28;20063;-75
2020/12/16 11:53:18;;;;;;;15.80;12.63;;;9.30;99.90;;;;;;5080804;28;20031;-75
2020/12/16 11:55:43;;;;;;;17.23;13.10;;;9.30;99.90;;;;;;5059607;28;20543;-75
2020/12/16 11:58:09;;;;;;;16.52;12.88;;;9.40;99.90;;;;;;5074064;28;20021;-75
2020/12/16 12:00:34;;;;;;;17.48;12.50;;;9.50;99.90;;;;;;5057028;28;20024;-75
2020/12/16 12:03:00;;;;;;;15.15;11.55;;;9.50;99.90;;;;;;5074893;28;20100;-75
2020/12/16 12:05:26;;;;;;;13.18;11.68;;;9.50;99.90;;;;;;5074837;28;20163;-75
2020/12/16 12:07:51;;;;;;;19.27;12.35;;;9.50;99.90;;;;;;5058384;28;20017;-75
2020/12/16 12:10:17;;;;;;;16.15;12.65;;;9.50;99.90;;;;;;5074980;28;20016;-75
2020/12/16 12:12:42;;;;;;;16.20;12.57;;;9.50;99.90;;;;;;5076461;28;20464;-75
2020/12/16 12:15:08;;;;;;;15.48;12.35;;;9.50;99.90;;;;;;5074612;28;20020;-75
2020/12/16 12:17:33;;;;;;;14.27;12.35;;;9.50;99.90;;;;;;5074657;28;20094;-75
2020/12/16 12:19:59;;;;;;;16.02;13.13;;;9.50;99.90;;;;;;5074901;28;20476;-75
2020/12/16 12:22:24;;;;;;;18.25;13.10;;;9.40;99.90;;;;;;5074693;28;20012;-75
2020/12/16 12:24:50;;;;;;;17.00;13.45;;;9.40;99.90;;;;;;5056660;28;20032;-75
2020/12/16 12:27:16;;;;;;;16.35;13.77;;;9.40;99.90;;;;;;5056143;28;20099;-75
2020/12/16 12:29:42;;;;;;;18.33;12.75;;;9.40;99.90;;;;;;5074718;28;20028;-75
2020/12/16 12:32:07;;;;;;;19.58;14.45;;;9.40;99.90;;;;;;5056417;28;20019;-75
2020/12/16 12:34:33;;;;;;;18.10;14.13;;;9.40;99.90;;;;;;5075705;28;20028;-75
2020/12/16 12:37:01;;;;;;;17.10;13.23;;;9.40;99.90;;;;;;5075183;28;20119;-75
2020/12/16 12:39:27;;;;;;;17.95;13.27;;;9.40;99.90;;;;;;5056923;28;20029;-75